createdAt,value
2023-12-30T00:00:17.976Z,15.00
2023-12-30T00:02:46.978Z,20.30
2023-12-30T00:05:13.932Z,15.75
2023-12-30T00:07:40.581Z,12.18
2023-12-30T00:10:07.986Z,15.18
2023-12-30T00:12:35.138Z,15.68
2023-12-30T00:15:02.595Z,14.77
2023-12-30T00:17:29.835Z,16.40
2023-12-30T00:19:57.823Z,12.77
2023-12-30T00:22:24.660Z,16.50
2023-12-30T00:24:51.521Z,16.38
2023-12-30T00:27:18.237Z,18.38
2023-12-30T00:29:44.907Z,17.40
2023-12-30T00:32:11.736Z,18.42
2023-12-30T00:34:38.447Z,17.10
2023-12-30T00:37:05.190Z,13.73
2023-12-30T00:39:31.949Z,18.17
2023-12-30T00:41:58.623Z,18.10
2023-12-30T00:44:25.320Z,16.48
2023-12-30T00:46:52.203Z,17.55
2023-12-30T00:49:19.005Z,16.10
2023-12-30T00:51:45.875Z,16.83
2023-12-30T00:54:12.542Z,16.50
2023-12-30T00:56:39.215Z,15.52
2023-12-30T00:59:05.905Z,15.48
2023-12-30T01:01:32.678Z,16.60
2023-12-30T01:04:00.441Z,15.75
2023-12-30T01:06:27.141Z,18.45
2023-12-30T01:08:54.024Z,15.07
2023-12-30T01:11:20.841Z,14.65
2023-12-30T01:13:47.599Z,13.57
2023-12-30T01:16:15.399Z,14.73
2023-12-30T01:18:42.369Z,12.30
2023-12-30T01:21:09.278Z,16.35
2023-12-30T01:23:35.965Z,15.32
2023-12-30T01:26:02.805Z,14.63
2023-12-30T01:28:29.482Z,16.58
2023-12-30T01:30:56.320Z,14.65
2023-12-30T01:33:23.890Z,17.00
2023-12-30T01:35:50.658Z,14.68
2023-12-30T01:38:17.909Z,16.75
2023-12-30T01:40:44.763Z,14.65
2023-12-30T01:43:28.209Z,12.70
2023-12-30T01:45:58.227Z,14.25
2023-12-30T01:48:25.836Z,15.93
2023-12-30T01:50:53.504Z,20.42
2023-12-30T01:53:21.010Z,18.05
2023-12-30T01:55:51.621Z,12.23
2023-12-30T02:00:49.959Z,16.35
2023-12-30T02:03:17.224Z,12.40
2023-12-30T02:05:44.069Z,13.52
2023-12-30T02:08:10.907Z,16.00
2023-12-30T02:10:38.022Z,15.02
2023-12-30T02:13:05.161Z,13.27
2023-12-30T02:15:32.081Z,12.85
2023-12-30T02:17:58.927Z,11.20
2023-12-30T02:20:26.184Z,14.90
2023-12-30T02:22:52.945Z,16.88
2023-12-30T02:25:19.725Z,22.25
2023-12-30T02:27:46.911Z,16.75
2023-12-30T02:30:14.642Z,17.20
2023-12-30T02:32:42.043Z,11.50
2023-12-30T02:35:09.305Z,15.52
2023-12-30T02:37:36.035Z,14.35
2023-12-30T02:40:03.016Z,15.38
2023-12-30T02:42:29.712Z,17.13
2023-12-30T02:44:56.459Z,18.85
2023-12-30T02:47:23.163Z,13.95
2023-12-30T02:49:49.813Z,16.15
2023-12-30T02:52:16.708Z,15.55
2023-12-30T02:54:43.477Z,15.50
2023-12-30T02:57:10.229Z,15.43
2023-12-30T02:59:36.985Z,15.27
2023-12-30T03:02:03.796Z,15.18
2023-12-30T03:04:30.710Z,16.58
2023-12-30T03:06:57.556Z,11.45
2023-12-30T03:09:24.681Z,16.10
2023-12-30T03:11:51.302Z,17.33
2023-12-30T03:14:18.021Z,15.55
2023-12-30T03:16:44.606Z,18.85
2023-12-30T03:19:12.669Z,18.85
2023-12-30T03:21:39.506Z,15.02
2023-12-30T03:24:06.452Z,13.88
2023-12-30T03:26:33.064Z,13.15
2023-12-30T03:28:59.664Z,17.40
2023-12-30T03:31:28.790Z,19.23
2023-12-30T03:33:56.641Z,17.15
2023-12-30T03:36:23.624Z,15.05
2023-12-30T03:38:53.482Z,16.08
2023-12-30T03:41:20.311Z,14.23
2023-12-30T03:43:47.308Z,18.25
2023-12-30T03:46:14.196Z,15.73
2023-12-30T03:48:41.031Z,16.38
2023-12-30T03:51:08.165Z,19.48
2023-12-30T03:53:34.844Z,14.38
2023-12-30T03:56:01.769Z,17.40
2023-12-30T03:58:28.964Z,14.68
2023-12-30T04:00:55.947Z,15.48
2023-12-30T04:03:22.785Z,19.42
2023-12-30T04:05:49.746Z,15.07
2023-12-30T04:08:16.498Z,17.52
2023-12-30T04:10:43.137Z,18.75
2023-12-30T04:13:10.855Z,19.45
2023-12-30T04:15:38.633Z,17.77
2023-12-30T04:18:06.156Z,21.88
2023-12-30T04:20:33.299Z,13.48
2023-12-30T04:23:00.996Z,17.65
2023-12-30T04:25:28.016Z,17.73
2023-12-30T04:27:54.749Z,18.35
2023-12-30T04:30:21.499Z,19.25
2023-12-30T04:32:48.354Z,19.50
2023-12-30T04:35:15.197Z,16.05
2023-12-30T04:37:41.901Z,15.25
2023-12-30T04:40:09.124Z,17.25
2023-12-30T04:42:36.719Z,16.00
2023-12-30T04:45:04.201Z,22.25
2023-12-30T04:47:31.139Z,12.65
2023-12-30T04:49:58.018Z,19.63
2023-12-30T04:52:24.746Z,21.33
2023-12-30T04:54:51.549Z,17.75
2023-12-30T04:57:18.265Z,16.45
2023-12-30T04:59:44.886Z,20.90
2023-12-30T05:02:11.489Z,17.85
2023-12-30T05:04:38.308Z,14.85
2023-12-30T05:07:05.287Z,20.25
2023-12-30T05:09:35.496Z,15.85
2023-12-30T05:12:02.290Z,20.33
2023-12-30T05:14:28.948Z,19.30
2023-12-30T05:16:55.578Z,15.93
2023-12-30T05:19:22.363Z,15.77
2023-12-30T05:21:52.784Z,17.38
2023-12-30T05:24:19.814Z,22.23
2023-12-30T05:26:47.175Z,19.23
2023-12-30T05:29:13.827Z,16.63
2023-12-30T05:31:40.500Z,17.08
2023-12-30T05:34:08.295Z,16.90
2023-12-30T05:36:38.339Z,17.40
2023-12-30T05:39:05.059Z,22.00
2023-12-30T05:41:31.789Z,17.98
2023-12-30T05:43:58.636Z,18.50
2023-12-30T05:46:25.918Z,18.48
2023-12-30T05:48:52.728Z,20.67
2023-12-30T05:51:21.653Z,14.00
2023-12-30T05:53:49.076Z,17.43
2023-12-30T05:56:23.435Z,17.75
2023-12-30T05:58:51.042Z,22.23
2023-12-30T06:01:17.737Z,15.68
2023-12-30T06:03:44.584Z,16.17
2023-12-30T06:06:11.438Z,19.05
2023-12-30T06:08:38.225Z,18.27
2023-12-30T06:11:05.037Z,18.90
2023-12-30T06:13:33.228Z,19.52
2023-12-30T06:16:00.098Z,17.33
2023-12-30T06:18:31.928Z,16.05
2023-12-30T06:20:59.940Z,19.83
2023-12-30T06:23:30.119Z,18.58
2023-12-30T06:25:56.852Z,17.70
2023-12-30T06:28:27.519Z,17.83
2023-12-30T06:30:55.061Z,13.68
2023-12-30T06:33:23.443Z,17.77
2023-12-30T06:35:50.890Z,22.52
2023-12-30T06:38:18.197Z,16.13
2023-12-30T06:40:46.875Z,20.88
2023-12-30T06:43:14.369Z,22.48
2023-12-30T06:45:41.073Z,17.98
2023-12-30T06:48:08.077Z,20.05
2023-12-30T06:50:34.778Z,19.38
2023-12-30T06:53:02.073Z,21.67
2023-12-30T06:55:35.228Z,15.82
2023-12-30T06:58:09.432Z,18.67
2023-12-30T07:00:37.165Z,17.27
2023-12-30T07:03:04.727Z,18.48
2023-12-30T07:05:37.436Z,25.08
2023-12-30T07:08:04.767Z,18.38
2023-12-30T07:10:31.698Z,17.00
2023-12-30T07:12:58.480Z,20.08
2023-12-30T07:15:25.148Z,21.02
2023-12-30T07:17:51.929Z,18.02
2023-12-30T07:20:18.651Z,19.08
2023-12-30T07:22:45.565Z,16.85
2023-12-30T07:25:12.369Z,16.90
2023-12-30T07:27:39.151Z,20.20
2023-12-30T07:30:06.548Z,21.38
2023-12-30T07:32:33.332Z,17.17
2023-12-30T07:35:01.007Z,18.15
2023-12-30T07:37:28.776Z,17.42
2023-12-30T07:39:55.881Z,19.90
2023-12-30T07:42:23.965Z,19.20
2023-12-30T07:44:52.362Z,19.05
2023-12-30T07:47:19.724Z,18.77
2023-12-30T07:49:49.155Z,18.17
2023-12-30T07:52:15.853Z,19.33
2023-12-30T07:54:42.578Z,20.27
2023-12-30T07:57:09.358Z,13.40
2023-12-30T07:59:36.001Z,20.23
2023-12-30T08:02:03.929Z,14.07
2023-12-30T08:04:30.743Z,21.77
2023-12-30T08:06:57.490Z,18.63
2023-12-30T08:09:24.305Z,19.40
2023-12-30T08:11:59.209Z,22.50
2023-12-30T08:14:29.684Z,22.17
2023-12-30T08:16:56.638Z,18.27
2023-12-30T08:19:23.401Z,17.55
2023-12-30T08:21:50.440Z,16.88
2023-12-30T08:24:20.354Z,18.50
2023-12-30T08:26:47.569Z,20.58
2023-12-30T08:29:15.626Z,22.52
2023-12-30T08:31:51.365Z,19.70
2023-12-30T08:34:18.562Z,20.17
2023-12-30T08:36:46.036Z,14.07
2023-12-30T08:39:13.195Z,18.88
2023-12-30T08:41:41.716Z,21.67
2023-12-30T08:44:08.600Z,21.50
2023-12-30T08:46:36.352Z,18.35
2023-12-30T08:49:06.728Z,19.95
2023-12-30T08:51:35.823Z,17.50
2023-12-30T08:54:02.860Z,18.02
2023-12-30T08:56:35.645Z,20.52
2023-12-30T08:59:02.779Z,16.88
2023-12-30T09:01:29.918Z,18.67
2023-12-30T09:03:57.382Z,21.25
2023-12-30T09:06:24.243Z,20.15
2023-12-30T09:08:51.050Z,24.38
2023-12-30T09:11:21.849Z,16.83
2023-12-30T09:13:50.294Z,18.20
2023-12-30T09:16:17.151Z,19.58
2023-12-30T09:18:44.459Z,20.23
2023-12-30T09:21:11.339Z,22.50
2023-12-30T09:23:38.752Z,20.10
2023-12-30T09:26:05.839Z,18.13
2023-12-30T09:28:33.444Z,16.45
2023-12-30T09:31:00.900Z,19.38
2023-12-30T09:33:27.869Z,19.52
2023-12-30T09:35:56.020Z,16.58
2023-12-30T09:38:26.553Z,17.98
2023-12-30T09:40:54.894Z,17.65
2023-12-30T09:43:26.979Z,21.13
2023-12-30T09:45:55.708Z,17.98
2023-12-30T09:48:28.628Z,18.60
2023-12-30T09:50:57.001Z,19.15
2023-12-30T09:53:26.116Z,20.35
2023-12-30T09:55:53.770Z,16.00
2023-12-30T09:58:21.785Z,15.13
2023-12-30T10:00:48.515Z,20.00
2023-12-30T10:03:16.801Z,16.75
2023-12-30T10:05:43.784Z,19.02
2023-12-30T10:08:11.144Z,15.52
2023-12-30T10:10:43.592Z,13.55
2023-12-30T10:13:13.251Z,21.38
2023-12-30T10:15:41.718Z,14.52
2023-12-30T10:18:08.932Z,19.80
2023-12-30T10:20:42.359Z,15.38
2023-12-30T10:23:09.215Z,16.95
2023-12-30T10:25:36.332Z,17.75
2023-12-30T10:28:03.940Z,21.58
2023-12-30T10:30:32.051Z,17.23
2023-12-30T10:33:16.098Z,20.15
2023-12-30T10:35:44.044Z,21.27
2023-12-30T10:38:11.998Z,15.55
2023-12-30T10:40:42.258Z,15.45
2023-12-30T10:43:10.071Z,20.27
2023-12-30T10:45:37.170Z,18.15
2023-12-30T10:48:07.787Z,20.58
2023-12-30T10:50:38.560Z,20.27
2023-12-30T10:53:16.560Z,17.88
2023-12-30T10:55:51.488Z,18.90
2023-12-30T10:58:21.060Z,19.05
2023-12-30T11:00:58.378Z,16.77
2023-12-30T11:03:26.859Z,16.00
2023-12-30T11:06:24.260Z,19.10
2023-12-30T11:08:59.002Z,16.20
2023-12-30T11:11:26.295Z,16.42
2023-12-30T11:13:58.219Z,16.92
2023-12-30T11:16:25.368Z,16.80
2023-12-30T11:18:59.291Z,17.15
2023-12-30T11:21:47.855Z,14.07
2023-12-30T11:24:16.377Z,17.33
2023-12-30T11:26:46.730Z,17.48
2023-12-30T11:29:17.362Z,16.75
2023-12-30T11:31:46.352Z,14.63
2023-12-30T11:34:14.683Z,17.02
2023-12-30T11:36:42.704Z,17.92
2023-12-30T11:39:10.247Z,15.98
2023-12-30T11:41:37.066Z,20.92
2023-12-30T11:44:07.106Z,16.65
2023-12-30T11:46:34.053Z,18.25
2023-12-30T11:49:00.902Z,17.55
2023-12-30T11:51:33.842Z,15.85
2023-12-30T11:54:06.831Z,16.92
2023-12-30T11:56:34.191Z,19.55
2023-12-30T11:59:01.884Z,21.08
2023-12-30T12:01:28.781Z,15.85
2023-12-30T12:03:56.227Z,14.40
2023-12-30T12:06:23.012Z,17.60
2023-12-30T12:08:49.783Z,19.33
2023-12-30T12:11:16.584Z,21.40
2023-12-30T12:13:43.552Z,17.10
2023-12-30T12:16:10.297Z,17.02
2023-12-30T12:18:37.476Z,15.50
2023-12-30T12:21:12.878Z,26.83
2023-12-30T12:23:41.882Z,19.73
2023-12-30T12:26:08.877Z,18.88
2023-12-30T12:28:35.791Z,17.38
2023-12-30T12:31:03.652Z,21.40
2023-12-30T12:33:31.303Z,18.75
2023-12-30T12:35:58.589Z,15.45
2023-12-30T12:38:25.429Z,17.77
2023-12-30T12:40:52.405Z,21.25
2023-12-30T12:43:19.720Z,17.75
2023-12-30T12:45:46.669Z,17.73
2023-12-30T12:48:14.537Z,19.85
2023-12-30T12:50:41.264Z,17.08
2023-12-30T12:53:07.916Z,19.75
2023-12-30T12:55:35.306Z,19.02
2023-12-30T12:58:02.206Z,20.95
2023-12-30T13:00:28.897Z,16.23
2023-12-30T13:02:55.716Z,16.75
2023-12-30T13:05:23.622Z,18.88
2023-12-30T13:07:50.781Z,17.25
2023-12-30T13:10:36.125Z,17.77
2023-12-30T13:13:03.613Z,20.92
2023-12-30T13:15:30.741Z,18.63
2023-12-30T13:18:00.672Z,17.13
2023-12-30T13:20:28.626Z,18.40
2023-12-30T13:22:58.992Z,19.65
2023-12-30T13:25:31.895Z,21.48
2023-12-30T13:27:59.535Z,14.70
2023-12-30T13:30:27.044Z,20.13
2023-12-30T13:33:02.185Z,21.17
2023-12-30T13:35:35.268Z,22.88
2023-12-30T13:38:07.546Z,21.95
2023-12-30T13:40:34.883Z,18.95
2023-12-30T13:43:08.955Z,17.67
2023-12-30T13:45:38.826Z,22.13
2023-12-30T13:48:07.000Z,18.60
2023-12-30T13:50:52.737Z,20.48
2023-12-30T13:53:22.474Z,21.77
2023-12-30T13:55:49.406Z,20.45
2023-12-30T13:58:16.685Z,20.15
2023-12-30T14:00:44.218Z,21.45
2023-12-30T14:03:11.157Z,17.55
2023-12-30T14:05:42.070Z,22.17
2023-12-30T14:08:27.324Z,21.77
2023-12-30T14:10:55.379Z,23.30
2023-12-30T14:13:24.250Z,24.15
2023-12-30T14:15:52.577Z,20.80
2023-12-30T14:18:20.184Z,30.25
2023-12-30T14:20:47.926Z,20.58
2023-12-30T14:23:14.973Z,22.25
2023-12-30T14:25:42.426Z,17.58
2023-12-30T14:28:10.833Z,19.02
2023-12-30T14:30:38.334Z,23.02
2023-12-30T14:33:06.683Z,21.25
2023-12-30T14:35:33.877Z,22.40
2023-12-30T14:38:02.651Z,23.45
2023-12-30T14:40:29.947Z,21.48
2023-12-30T14:42:56.935Z,24.73
2023-12-30T14:45:24.064Z,25.58
2023-12-30T14:47:51.117Z,21.45
2023-12-30T14:50:17.975Z,23.85
2023-12-30T14:52:44.807Z,26.38
2023-12-30T14:55:12.475Z,24.05
2023-12-30T14:57:40.700Z,25.75
2023-12-30T15:00:15.488Z,24.02
2023-12-30T15:02:43.864Z,21.30
2023-12-30T15:05:15.211Z,23.67
2023-12-30T15:07:43.758Z,21.88
2023-12-30T15:10:12.095Z,26.13
2023-12-30T15:12:39.550Z,23.77
2023-12-30T15:15:08.076Z,24.73
2023-12-30T15:17:34.935Z,26.25
2023-12-30T15:20:01.933Z,28.13
2023-12-30T15:22:30.748Z,26.67
2023-12-30T15:24:58.188Z,28.95
2023-12-30T15:27:25.049Z,29.77
2023-12-30T15:29:51.911Z,29.67
2023-12-30T15:32:18.947Z,28.17
2023-12-30T15:34:45.823Z,29.08
2023-12-30T15:37:15.578Z,26.27
2023-12-30T15:39:42.247Z,33.13
2023-12-30T15:42:09.228Z,33.88
2023-12-30T15:44:38.855Z,34.70
2023-12-30T15:47:11.035Z,31.75
2023-12-30T15:49:39.007Z,27.80
2023-12-30T15:52:11.068Z,30.15
2023-12-30T15:54:40.593Z,27.92
2023-12-30T15:57:07.615Z,32.53
2023-12-30T15:59:34.438Z,38.38
2023-12-30T16:02:01.635Z,29.98
2023-12-30T16:04:28.961Z,26.48
2023-12-30T16:06:55.808Z,35.22
2023-12-30T16:09:22.863Z,27.58
2023-12-30T16:11:50.212Z,46.05
2023-12-30T16:14:17.505Z,30.27
2023-12-30T16:16:47.782Z,28.10
2023-12-30T16:21:43.329Z,37.80
2023-12-30T16:24:10.190Z,29.08
2023-12-30T16:26:36.981Z,27.38
2023-12-30T16:29:04.474Z,30.17
2023-12-30T16:31:31.692Z,28.85
2023-12-30T16:33:58.816Z,24.27
2023-12-30T16:36:25.976Z,28.63
2023-12-30T16:38:53.138Z,24.75
2023-12-30T16:41:19.893Z,26.85
2023-12-30T16:43:46.732Z,32.03
2023-12-30T16:46:13.688Z,24.33
2023-12-30T16:48:40.874Z,25.13
2023-12-30T16:51:07.771Z,23.95
2023-12-30T16:53:34.433Z,29.70
2023-12-30T16:56:01.426Z,29.13
2023-12-30T16:58:32.032Z,28.40
2023-12-30T17:01:02.832Z,29.50
2023-12-30T17:03:30.140Z,33.15
2023-12-30T17:05:56.921Z,33.38
2023-12-30T17:08:23.703Z,30.13
2023-12-30T17:10:50.437Z,28.85
2023-12-30T17:13:17.162Z,53.92
2023-12-30T17:15:44.279Z,47.72
2023-12-30T17:18:11.041Z,28.38
2023-12-30T17:20:37.689Z,29.13
2023-12-30T17:23:06.787Z,30.88
2023-12-30T17:25:33.537Z,25.83
2023-12-30T17:28:01.110Z,30.45
2023-12-30T17:30:28.798Z,26.23
2023-12-30T17:32:55.879Z,25.70
2023-12-30T17:35:24.674Z,27.48
2023-12-30T17:37:51.588Z,27.08
2023-12-30T17:40:19.407Z,29.05
2023-12-30T17:42:47.044Z,35.90
2023-12-30T17:45:14.228Z,36.42
2023-12-30T17:47:41.027Z,30.42
2023-12-30T17:50:11.109Z,39.40
2023-12-30T17:52:38.341Z,34.63
2023-12-30T17:55:05.986Z,35.50
2023-12-30T17:57:32.665Z,30.45
2023-12-30T17:59:59.638Z,28.05
2023-12-30T18:02:26.382Z,27.10
2023-12-30T18:04:53.383Z,25.42
2023-12-30T18:07:20.178Z,26.73
2023-12-30T18:09:48.269Z,24.50
2023-12-30T18:12:15.182Z,26.33
2023-12-30T18:14:42.012Z,45.47
2023-12-30T18:17:09.079Z,27.77
2023-12-30T18:19:35.895Z,26.27
2023-12-30T18:22:02.962Z,24.70
2023-12-30T18:24:30.108Z,23.33
2023-12-30T18:26:57.050Z,22.25
2023-12-30T18:29:24.216Z,24.88
2023-12-30T18:31:51.971Z,20.48
2023-12-30T18:34:19.330Z,23.98
2023-12-30T18:36:47.162Z,21.73
2023-12-30T18:39:14.216Z,25.63
2023-12-30T18:41:41.046Z,27.80
2023-12-30T18:44:07.914Z,19.58
2023-12-30T18:46:37.684Z,21.17
2023-12-30T18:49:04.716Z,20.35
2023-12-30T18:51:31.474Z,26.27
2023-12-30T18:53:58.216Z,21.52
2023-12-30T18:56:24.873Z,21.17
2023-12-30T18:58:51.729Z,25.20
2023-12-30T19:01:18.576Z,22.33
2023-12-30T19:03:45.454Z,20.67
2023-12-30T19:06:12.225Z,20.83
2023-12-30T19:08:39.805Z,22.15
2023-12-30T19:11:07.067Z,18.23
2023-12-30T19:13:35.368Z,20.65
2023-12-30T19:16:03.738Z,22.13
2023-12-30T19:18:30.604Z,23.48
2023-12-30T19:20:58.220Z,24.27
2023-12-30T19:23:25.087Z,29.42
2023-12-30T19:25:51.738Z,24.50
2023-12-30T19:28:18.532Z,20.13
2023-12-30T19:30:45.271Z,20.58
2023-12-30T19:33:13.728Z,20.75
2023-12-30T19:35:42.674Z,27.27
2023-12-30T19:38:09.758Z,21.90
2023-12-30T19:40:36.636Z,20.25
2023-12-30T19:43:05.166Z,18.73
2023-12-30T19:45:32.114Z,18.70
2023-12-30T19:48:00.123Z,18.13
2023-12-30T19:50:29.189Z,19.27
2023-12-30T19:52:56.373Z,18.58
2023-12-30T19:55:23.230Z,19.08
2023-12-30T19:57:49.933Z,20.60
2023-12-30T20:00:17.188Z,18.42
2023-12-30T20:02:44.704Z,23.30
2023-12-30T20:05:15.683Z,18.33
2023-12-30T20:07:42.766Z,23.33
2023-12-30T20:10:12.853Z,22.90
2023-12-30T20:12:40.034Z,21.02
2023-12-30T20:15:08.410Z,22.48
2023-12-30T20:17:36.883Z,21.00
2023-12-30T20:20:07.134Z,19.33
2023-12-30T20:22:34.342Z,18.58
2023-12-30T20:25:01.094Z,22.25
2023-12-30T20:27:28.817Z,21.27
2023-12-30T20:29:55.650Z,19.50
2023-12-30T20:32:23.202Z,19.08
2023-12-30T20:34:51.047Z,19.45
2023-12-30T20:37:20.588Z,21.45
2023-12-30T20:39:47.333Z,20.38
2023-12-30T20:42:14.812Z,19.45
2023-12-30T20:44:41.464Z,19.95
2023-12-30T20:47:11.275Z,21.00
2023-12-30T20:49:39.474Z,19.77
2023-12-30T20:52:06.634Z,16.05
2023-12-30T20:54:33.895Z,22.35
2023-12-30T20:57:00.916Z,19.52
2023-12-30T20:59:27.666Z,19.33
2023-12-30T21:01:54.384Z,20.02
2023-12-30T21:04:21.217Z,19.60
2023-12-30T21:06:47.911Z,18.63
2023-12-30T21:09:15.734Z,17.65
2023-12-30T21:11:43.206Z,20.33
2023-12-30T21:14:10.041Z,21.38
2023-12-30T21:16:37.095Z,26.90
2023-12-30T21:19:04.383Z,34.40
2023-12-30T21:21:31.308Z,30.00
2023-12-30T21:23:58.141Z,27.67
2023-12-30T21:26:25.865Z,19.02
2023-12-30T21:28:52.636Z,19.02
2023-12-30T21:31:19.460Z,17.27
2023-12-30T21:33:46.252Z,16.92
2023-12-30T21:36:15.889Z,17.75
2023-12-30T21:38:44.398Z,20.73
2023-12-30T21:41:12.935Z,16.70
2023-12-30T21:43:42.445Z,23.15
2023-12-30T21:46:09.190Z,19.50
2023-12-30T21:48:35.945Z,20.17
2023-12-30T21:51:07.510Z,18.05
2023-12-30T21:53:34.228Z,17.30
2023-12-30T21:56:00.848Z,19.60
2023-12-30T21:58:27.496Z,17.83
2023-12-30T22:00:54.344Z,19.85
2023-12-30T22:03:21.151Z,19.20
2023-12-30T22:05:47.938Z,16.35
2023-12-30T22:08:15.062Z,16.77
2023-12-30T22:10:41.795Z,17.42
